Time;durP1;ratioP1;P1;durP2;ratioP2;P2;SDS_P1;SDS_P2;PMS_P1;PMS_P2;Temp;Humidity;BMP_temperature;BMP_pressure;BME280_temperature;BME280_humidity;BME280_pressure;Samples;Min_cycle;Max_cycle;Signal;HPM_P1;HPM_P2
2023/01/30 00:01:21;;;;;;;45.53;28.55;;;;;;;;;;4972925;28;20050;-62
2023/01/30 00:03:47;;;;;;;51.55;31.13;;;;;;;;;;4979469;28;20034;-61
2023/01/30 00:06:14;;;;;;;51.33;31.23;;;;;;;;;;4972839;28;20419;-61
2023/01/30 00:08:40;;;;;;;51.63;28.48;;;;;;;;;;4972917;28;20023;-61
2023/01/30 00:11:07;;;;;;;48.22;30.65;;;;;;;;;;4971633;28;20030;-61
2023/01/30 00:13:33;;;;;;;47.33;28.50;;;;;;;;;;4972153;28;20039;-61
2023/01/30 00:15:59;;;;;;;45.30;31.42;;;;;;;;;;4972374;28;20399;-61
2023/01/30 00:18:25;;;;;;;47.03;28.95;;;;;;;;;;4972860;28;20435;-61
2023/01/30 00:20:55;;;;;;;41.45;27.85;;;;;;;;;;4972138;28;20546;-61
2023/01/30 00:23:21;;;;;;;51.20;31.15;;;;;;;;;;4969866;28;20034;-61
2023/01/30 00:25:47;;;;;;;55.58;32.22;;;;;;;;;;4972722;28;20023;-61
2023/01/30 00:28:13;;;;;;;48.72;31.52;;;;;;;;;;4972625;28;20073;-61
2023/01/30 00:30:39;;;;;;;47.80;30.70;;;;;;;;;;4972369;28;20019;-61
2023/01/30 00:33:05;;;;;;;49.75;32.38;;;;;;;;;;4972311;28;20499;-60
2023/01/30 00:35:32;;;;;;;51.63;28.95;;;;;;;;;;4966810;28;20019;-60
2023/01/30 00:37:58;;;;;;;37.00;24.08;;;;;;;;;;4962075;28;20023;-60
2023/01/30 00:40:25;;;;;;;45.55;29.33;;;;;;;;;;4963500;28;20399;-60
2023/01/30 00:48:21;;;;;;;49.42;31.23;;;;;;;;;;4975468;28;20045;-61
2023/01/30 00:50:47;;;;;;;50.30;28.08;;;;;;;;;;4981791;28;20411;-60
2023/01/30 00:53:14;;;;;;;47.85;31.90;;;;;;;;;;4991515;28;20102;-60
2023/01/30 00:55:42;;;;;;;39.78;25.75;;;;;;;;;;4296837;28;10000614;-55
2023/01/30 00:58:08;;;;;;;52.10;30.30;;;;;;;;;;4974463;28;20038;-61
2023/01/30 01:00:34;;;;;;;44.53;26.75;;;;;;;;;;5026014;22;20092;-64
2023/01/30 01:03:00;;;;;;;50.15;30.90;;;;;;;;;;5002614;28;20088;-63
2023/01/30 01:05:27;;;;;;;48.83;33.58;;;;;;;;;;5010607;28;20026;-63
2023/01/30 01:07:53;;;;;;;54.00;31.83;;;;;;;;;;5017879;28;20105;-64
2023/01/30 01:10:19;;;;;;;55.63;34.08;;;;;;;;;;5011225;28;20060;-64
2023/01/30 01:12:45;;;;;;;48.53;30.08;;;;;;;;;;5011867;28;20105;-64
2023/01/30 01:15:12;;;;;;;50.45;31.75;;;;;;;;;;5011763;28;20080;-64
2023/01/30 01:17:39;;;;;;;50.35;32.03;;;;;;;;;;5010794;28;20026;-64
2023/01/30 01:20:06;;;;;;;47.75;28.95;;;;;;;;;;5011698;28;20025;-64
2023/01/30 01:22:31;;;;;;;46.20;29.02;;;;;;;;;;5011775;28;20068;-61
2023/01/30 01:24:57;;;;;;;42.42;26.67;;;;;;;;;;5011574;28;20470;-65
2023/01/30 01:27:24;;;;;;;51.47;31.95;;;;;;;;;;5011808;28;20113;-63
2023/01/30 01:29:49;;;;;;;57.35;34.30;;;;;;;;;;5010220;28;20030;-63
2023/01/30 01:32:15;;;;;;;64.85;30.77;;;;;;;;;;5010511;28;20026;-64
2023/01/30 01:34:42;;;;;;;50.33;33.83;;;;;;;;;;5012784;28;20113;-63
2023/01/30 01:37:08;;;;;;;58.58;38.88;;;;;;;;;;5015441;28;20445;-63
2023/01/30 01:42:18;;;;;;;50.85;38.92;;;;;;;;;;5015423;28;20122;-65
2023/01/30 01:45:00;;;;;;;51.50;36.53;;;;;;;;;;5013607;28;20114;-64
2023/01/30 01:47:26;;;;;;;58.70;35.25;;;;;;;;;;5015102;28;20105;-64
2023/01/30 01:49:52;;;;;;;55.40;40.80;;;;;;;;;;5013666;28;20030;-64
2023/01/30 01:52:18;;;;;;;58.72;39.70;;;;;;;;;;5013788;28;20022;-64
2023/01/30 01:54:50;;;;;;;48.45;37.95;;;;;;;;;;5013640;28;20029;-65
2023/01/30 01:57:19;;;;;;;58.55;39.40;;;;;;;;;;5015126;28;20029;-65
2023/01/30 01:59:47;;;;;;;63.70;40.55;;;;;;;;;;5013522;28;20040;-64
2023/01/30 02:02:14;;;;;;;65.47;41.63;;;;;;;;;;5014809;28;20026;-64
2023/01/30 02:05:01;;;;;;;57.97;38.38;;;;;;;;;;5013428;28;20034;-64
2023/01/30 02:07:53;;;;;;;64.28;42.88;;;;;;;;;;5013801;28;20030;-65
2023/01/30 02:10:24;;;;;;;69.00;42.92;;;;;;;;;;5011302;28;20038;-64
2023/01/30 02:12:51;;;;;;;51.88;33.58;;;;;;;;;;5014733;28;20029;-64
2023/01/30 02:15:18;;;;;;;66.38;40.90;;;;;;;;;;5014663;28;20021;-64
2023/01/30 02:17:44;;;;;;;60.13;38.03;;;;;;;;;;5013295;28;20028;-64
2023/01/30 02:20:10;;;;;;;58.17;37.20;;;;;;;;;;5014536;28;20486;-64
2023/01/30 02:22:55;;;;;;;52.47;35.17;;;;;;;;;;5014524;28;20030;-64
2023/01/30 02:25:47;;;;;;;58.25;36.22;;;;;;;;;;5014434;28;20402;-65
2023/01/30 02:28:16;;;;;;;59.33;39.10;;;;;;;;;;4984399;28;20042;-64
2023/01/30 02:30:42;;;;;;;63.78;39.25;;;;;;;;;;5014321;28;20500;-64
2023/01/30 02:33:31;;;;;;;60.13;35.88;;;;;;;;;;5013045;28;20107;-64
2023/01/30 02:35:57;;;;;;;55.17;37.20;;;;;;;;;;5000630;28;20038;-64
2023/01/30 02:38:32;;;;;;;60.65;40.03;;;;;;;;;;5014277;28;20505;-65
2023/01/30 02:41:04;;;;;;;67.28;43.47;;;;;;;;;;5014229;28;20029;-65
2023/01/30 02:43:51;;;;;;;70.90;44.50;;;;;;;;;;5012807;28;20117;-64
2023/01/30 02:46:20;;;;;;;63.10;43.38;;;;;;;;;;5012804;28;20500;-65
2023/01/30 02:48:48;;;;;;;62.45;43.75;;;;;;;;;;5013861;28;20030;-65
2023/01/30 02:51:19;;;;;;;59.72;39.25;;;;;;;;;;5012740;28;20022;-65
2023/01/30 02:53:46;;;;;;;52.15;35.60;;;;;;;;;;5014144;28;20104;-65
2023/01/30 02:56:12;;;;;;;45.03;33.85;;;;;;;;;;5015381;28;20026;-63
2023/01/30 02:58:39;;;;;;;58.80;39.92;;;;;;;;;;5015251;28;20354;-64
2023/01/30 03:01:11;;;;;;;68.80;44.47;;;;;;;;;;5014071;28;20037;-64
2023/01/30 03:03:55;;;;;;;67.15;44.55;;;;;;;;;;5013578;28;20033;-63
2023/01/30 03:06:21;;;;;;;55.20;36.13;;;;;;;;;;5012404;28;20018;-64
2023/01/30 03:09:01;;;;;;;65.45;42.60;;;;;;;;;;5013530;28;20032;-64
2023/01/30 03:11:31;;;;;;;49.38;40.10;;;;;;;;;;5012349;28;20026;-64
2023/01/30 03:14:13;;;;;;;64.30;45.28;;;;;;;;;;5012032;28;20014;-64
2023/01/30 03:16:40;;;;;;;62.67;49.67;;;;;;;;;;5013455;28;20026;-64
2023/01/30 03:19:10;;;;;;;67.57;51.33;;;;;;;;;;5013340;28;20034;-65
2023/01/30 03:21:41;;;;;;;64.03;51.67;;;;;;;;;;5012322;28;20026;-65
2023/01/30 03:24:07;;;;;;;69.82;56.55;;;;;;;;;;5011837;28;20061;-65
2023/01/30 03:26:35;;;;;;;67.82;53.15;;;;;;;;;;5012152;28;20022;-64
2023/01/30 03:29:01;;;;;;;64.00;57.33;;;;;;;;;;5011956;28;20029;-64
2023/01/30 03:31:27;;;;;;;72.53;61.00;;;;;;;;;;5013187;28;20023;-65
2023/01/30 03:33:53;;;;;;;60.97;54.97;;;;;;;;;;5012894;28;20386;-64
2023/01/30 03:36:19;;;;;;;73.28;63.83;;;;;;;;;;5013110;28;20048;-64
2023/01/30 03:38:45;;;;;;;70.38;63.00;;;;;;;;;;5013084;28;20081;-64
2023/01/30 03:41:11;;;;;;;77.90;69.57;;;;;;;;;;5013043;28;20033;-65
2023/01/30 03:43:37;;;;;;;68.90;61.95;;;;;;;;;;5012769;28;20029;-65
2023/01/30 03:46:03;;;;;;;73.50;66.18;;;;;;;;;;5011586;28;20553;-65
2023/01/30 03:48:29;;;;;;;73.32;65.93;;;;;;;;;;5012728;28;20438;-64
2023/01/30 03:50:55;;;;;;;73.25;65.68;;;;;;;;;;5011459;28;20026;-65
2023/01/30 03:53:22;;;;;;;81.80;73.55;;;;;;;;;;5011155;28;20070;-64
2023/01/30 03:55:48;;;;;;;79.75;72.15;;;;;;;;;;5011955;28;20022;-63
2023/01/30 03:58:14;;;;;;;82.95;75.13;;;;;;;;;;5011297;28;20022;-64
2023/01/30 04:00:40;;;;;;;79.18;71.32;;;;;;;;;;5011273;28;20478;-64
2023/01/30 04:03:07;;;;;;;84.85;75.70;;;;;;;;;;5011025;28;20033;-63
2023/01/30 04:05:32;;;;;;;81.25;73.65;;;;;;;;;;5011092;28;20069;-64
2023/01/30 04:07:58;;;;;;;81.85;74.10;;;;;;;;;;5012156;28;20064;-64
2023/01/30 04:10:25;;;;;;;78.07;70.47;;;;;;;;;;5012518;28;20026;-63
2023/01/30 04:12:51;;;;;;;81.63;74.55;;;;;;;;;;5011593;28;20458;-62
2023/01/30 04:15:17;;;;;;;80.05;72.47;;;;;;;;;;5011427;28;20030;-63
2023/01/30 04:17:43;;;;;;;78.13;71.07;;;;;;;;;;5012571;28;20419;-62
2023/01/30 04:20:10;;;;;;;84.20;75.93;;;;;;;;;;5012615;28;20088;-63
2023/01/30 04:22:36;;;;;;;85.75;77.85;;;;;;;;;;5011037;28;20120;-59
2023/01/30 04:25:02;;;;;;;82.35;74.90;;;;;;;;;;5010940;28;20045;-63
2023/01/30 04:27:28;;;;;;;76.03;69.55;;;;;;;;;;5012471;28;20033;-64
2023/01/30 04:29:54;;;;;;;79.65;72.40;;;;;;;;;;5010997;28;20021;-62
2023/01/30 04:32:20;;;;;;;77.70;70.93;;;;;;;;;;5012677;28;20119;-63
2023/01/30 04:34:46;;;;;;;77.40;70.20;;;;;;;;;;5012612;28;20053;-63
2023/01/30 04:37:12;;;;;;;78.40;70.97;;;;;;;;;;5012755;28;20045;-62
2023/01/30 04:39:38;;;;;;;76.22;69.47;;;;;;;;;;5012313;28;20030;-64
2023/01/30 04:42:05;;;;;;;78.93;71.85;;;;;;;;;;5012123;28;20030;-62
2023/01/30 04:44:31;;;;;;;75.70;68.90;;;;;;;;;;5011818;28;20629;-62
2023/01/30 04:46:56;;;;;;;72.22;65.30;;;;;;;;;;5010674;28;20029;-61
2023/01/30 04:49:22;;;;;;;69.70;63.63;;;;;;;;;;5010562;28;20030;-62
2023/01/30 04:51:48;;;;;;;70.80;64.10;;;;;;;;;;5011771;28;20022;-62
2023/01/30 04:54:14;;;;;;;71.47;65.05;;;;;;;;;;5011641;28;20105;-61
2023/01/30 04:56:40;;;;;;;71.50;64.82;;;;;;;;;;5011964;28;20030;-61
2023/01/30 04:59:06;;;;;;;81.43;67.47;;;;;;;;;;5011490;28;20501;-62
2023/01/30 05:01:34;;;;;;;71.97;65.35;;;;;;;;;;5010511;28;20041;-63
2023/01/30 05:04:00;;;;;;;69.28;63.00;;;;;;;;;;5011285;28;20114;-64
2023/01/30 05:06:26;;;;;;;51.35;47.55;;;;;;;;;;5010484;28;20047;-62
2023/01/30 05:08:53;;;;;;;51.67;47.97;;;;;;;;;;5013376;28;20087;-61
2023/01/30 05:11:20;;;;;;;51.05;47.40;;;;;;;;;;5019884;28;20033;-61
2023/01/30 05:13:46;;;;;;;50.67;47.05;;;;;;;;;;5015513;28;20466;-63
2023/01/30 05:16:12;;;;;;;51.00;47.10;;;;;;;;;;5014233;28;20048;-62
2023/01/30 05:18:38;;;;;;;49.72;46.13;;;;;;;;;;5014135;28;20030;-63
2023/01/30 05:21:06;;;;;;;53.90;49.67;;;;;;;;;;5015387;28;20448;-61
2023/01/30 05:23:32;;;;;;;52.10;48.30;;;;;;;;;;5015232;28;20096;-60
2023/01/30 05:25:58;;;;;;;55.63;51.53;;;;;;;;;;5015068;28;20026;-58
2023/01/30 05:28:24;;;;;;;52.55;48.75;;;;;;;;;;5015358;28;20033;-61
2023/01/30 05:30:50;;;;;;;50.53;46.83;;;;;;;;;;5015080;28;20026;-60
2023/01/30 05:33:16;;;;;;;49.95;46.25;;;;;;;;;;5014906;28;20092;-60
2023/01/30 05:35:49;;;;;;;48.80;45.20;;;;;;;;;;5015215;28;20474;-60
2023/01/30 05:38:16;;;;;;;52.08;48.38;;;;;;;;;;5014977;28;20060;-55
2023/01/30 05:40:42;;;;;;;50.25;46.75;;;;;;;;;;5014599;28;20030;-55
2023/01/30 05:43:08;;;;;;;49.92;46.42;;;;;;;;;;5013886;28;20041;-59
2023/01/30 05:45:35;;;;;;;48.88;45.45;;;;;;;;;;5015065;28;20445;-58
2023/01/30 05:48:01;;;;;;;49.20;45.78;;;;;;;;;;5013853;28;20041;-60
2023/01/30 05:50:27;;;;;;;49.70;46.20;;;;;;;;;;5014609;28;20030;-61
2023/01/30 05:52:53;;;;;;;50.92;47.38;;;;;;;;;;5014707;28;20111;-62
2023/01/30 05:55:19;;;;;;;49.38;45.88;;;;;;;;;;5014420;28;20477;-60
2023/01/30 05:57:45;;;;;;;37.90;34.95;;;;;;;;;;5014426;28;20056;-58
2023/01/30 06:00:11;;;;;;;38.03;35.08;;;;;;;;;;5014280;28;20406;-61
2023/01/30 06:02:38;;;;;;;35.38;32.58;;;;;;;;;;5014424;28;20022;-58
2023/01/30 06:05:05;;;;;;;36.78;33.97;;;;;;;;;;5012793;28;20029;-61
2023/01/30 06:07:31;;;;;;;38.03;35.13;;;;;;;;;;5013211;28;20108;-62
2023/01/30 06:09:57;;;;;;;38.85;35.95;;;;;;;;;;5012648;28;20137;-56
2023/01/30 06:12:23;;;;;;;41.30;38.30;;;;;;;;;;5014148;28;20076;-63
2023/01/30 06:14:49;;;;;;;42.90;39.80;;;;;;;;;;5013872;28;20025;-62
2023/01/30 06:17:15;;;;;;;44.65;41.25;;;;;;;;;;5014088;28;20162;-62
2023/01/30 06:19:41;;;;;;;43.22;40.13;;;;;;;;;;5012945;28;20033;-61
2023/01/30 06:22:07;;;;;;;44.67;41.47;;;;;;;;;;5013939;28;20034;-62
2023/01/30 06:24:33;;;;;;;45.15;41.95;;;;;;;;;;5012259;28;20088;-63
2023/01/30 06:26:59;;;;;;;43.90;40.80;;;;;;;;;;5014017;28;20108;-63
2023/01/30 06:29:25;;;;;;;46.30;42.90;;;;;;;;;;5013413;28;20433;-60
2023/01/30 06:31:51;;;;;;;44.67;41.38;;;;;;;;;;5012492;28;20022;-62
2023/01/30 06:34:17;;;;;;;44.45;41.15;;;;;;;;;;5013136;28;20034;-53
2023/01/30 06:36:43;;;;;;;44.70;41.30;;;;;;;;;;5012174;28;20057;-59
2023/01/30 06:39:09;;;;;;;44.03;40.83;;;;;;;;;;5013622;28;20494;-59
2023/01/30 06:41:35;;;;;;;46.67;43.38;;;;;;;;;;5013610;28;20033;-62
2023/01/30 06:44:01;;;;;;;42.25;39.10;;;;;;;;;;5013316;28;20487;-62
2023/01/30 06:46:27;;;;;;;43.50;40.30;;;;;;;;;;5012179;28;20033;-57
2023/01/30 06:48:53;;;;;;;43.83;40.63;;;;;;;;;;5013076;28;20022;-60
2023/01/30 06:51:19;;;;;;;44.97;41.67;;;;;;;;;;5012927;28;20151;-63
2023/01/30 06:53:45;;;;;;;42.60;39.45;;;;;;;;;;5012644;28;20026;-55
2023/01/30 06:56:11;;;;;;;44.08;40.88;;;;;;;;;;5013046;28;20573;-58
2023/01/30 06:58:37;;;;;;;45.05;41.83;;;;;;;;;;5011426;28;20058;-55
2023/01/30 07:01:03;;;;;;;45.45;42.25;;;;;;;;;;5042247;23;20052;-54
2023/01/30 07:03:29;;;;;;;46.13;42.83;;;;;;;;;;5014128;28;20026;-53
2023/01/30 07:05:55;;;;;;;44.05;40.85;;;;;;;;;;5027114;28;20030;-59
2023/01/30 07:08:21;;;;;;;43.38;40.28;;;;;;;;;;5021608;28;20022;-58
2023/01/30 07:10:47;;;;;;;41.35;38.35;;;;;;;;;;5032924;28;20041;-58
2023/01/30 07:13:13;;;;;;;41.65;38.65;;;;;;;;;;5014035;28;20180;-59
2023/01/30 07:15:39;;;;;;;39.15;36.25;;;;;;;;;;5021150;28;20431;-55
2023/01/30 07:18:05;;;;;;;38.40;35.60;;;;;;;;;;5014369;28;20037;-59
2023/01/30 07:20:31;;;;;;;37.22;34.42;;;;;;;;;;5033426;28;20120;-59
2023/01/30 07:22:58;;;;;;;36.63;33.83;;;;;;;;;;5032653;28;20052;-55
2023/01/30 07:25:24;;;;;;;35.38;32.65;;;;;;;;;;5032659;28;20029;-56
2023/01/30 07:27:51;;;;;;;35.95;33.15;;;;;;;;;;5032568;28;20045;-56
2023/01/30 07:30:17;;;;;;;35.65;32.85;;;;;;;;;;5032377;28;20267;-57
2023/01/30 07:32:43;;;;;;;33.63;30.92;;;;;;;;;;5014322;28;20040;-60
2023/01/30 07:35:09;;;;;;;33.20;30.63;;;;;;;;;;5031952;28;20100;-60
2023/01/30 07:37:35;;;;;;;33.83;31.23;;;;;;;;;;5014299;28;20028;-56
2023/01/30 07:40:01;;;;;;;34.13;31.52;;;;;;;;;;5031924;28;20044;-59
2023/01/30 07:42:27;;;;;;;34.15;31.55;;;;;;;;;;5032394;28;20083;-57
2023/01/30 07:44:53;;;;;;;34.03;31.42;;;;;;;;;;5013990;28;20033;-57
2023/01/30 07:47:19;;;;;;;32.85;30.35;;;;;;;;;;5031699;28;20025;-58
2023/01/30 07:49:45;;;;;;;32.65;30.15;;;;;;;;;;5013834;28;20091;-52
2023/01/30 07:52:11;;;;;;;32.78;30.20;;;;;;;;;;5031945;28;20067;-58
2023/01/30 07:54:37;;;;;;;32.58;30.05;;;;;;;;;;5031821;28;20026;-58
2023/01/30 07:57:03;;;;;;;33.17;30.58;;;;;;;;;;5031914;28;20025;-57
2023/01/30 07:59:29;;;;;;;33.28;30.67;;;;;;;;;;5031971;28;20030;-59
2023/01/30 08:01:57;;;;;;;33.13;30.52;;;;;;;;;;5031789;28;20496;-61
2023/01/30 08:04:23;;;;;;;33.70;31.10;;;;;;;;;;5031710;28;20060;-57
2023/01/30 08:06:49;;;;;;;31.45;28.95;;;;;;;;;;5030697;28;20116;-60
2023/01/30 08:09:15;;;;;;;30.88;28.48;;;;;;;;;;5031754;28;20064;-58
2023/01/30 08:11:41;;;;;;;32.35;29.85;;;;;;;;;;5030787;28;20061;-59
2023/01/30 08:14:07;;;;;;;31.85;29.35;;;;;;;;;;5031552;28;20026;-60
2023/01/30 08:16:33;;;;;;;32.40;29.63;;;;;;;;;;5032327;28;20029;-60
2023/01/30 08:18:59;;;;;;;36.08;32.67;;;;;;;;;;5032018;28;20033;-56
2023/01/30 08:21:25;;;;;;;29.42;27.13;;;;;;;;;;5031813;28;20032;-59
2023/01/30 08:23:51;;;;;;;29.02;26.73;;;;;;;;;;5030356;28;20029;-61
2023/01/30 08:26:17;;;;;;;29.13;26.83;;;;;;;;;;5030339;28;20583;-59
2023/01/30 08:28:43;;;;;;;28.65;26.35;;;;;;;;;;5031736;28;20025;-59
2023/01/30 08:31:11;;;;;;;29.23;26.92;;;;;;;;;;5031342;28;20409;-60
2023/01/30 08:33:37;;;;;;;26.33;24.13;;;;;;;;;;5031191;28;20017;-59
2023/01/30 08:36:03;;;;;;;25.75;23.55;;;;;;;;;;5030298;28;20075;-59
2023/01/30 08:38:29;;;;;;;23.85;21.85;;;;;;;;;;5030280;28;20056;-58
2023/01/30 08:40:56;;;;;;;23.80;21.80;;;;;;;;;;5029878;28;20057;-61
2023/01/30 08:43:22;;;;;;;20.73;18.83;;;;;;;;;;5031138;28;20489;-62
2023/01/30 08:45:48;;;;;;;18.33;16.52;;;;;;;;;;5031339;28;20056;-61
2023/01/30 08:48:15;;;;;;;15.57;13.88;;;;;;;;;;5013672;28;20049;-61
2023/01/30 08:50:41;;;;;;;16.17;14.00;;;;;;;;;;5013100;28;20049;-61
2023/01/30 08:53:09;;;;;;;15.20;13.07;;;;;;;;;;5030762;28;20021;-59
2023/01/30 08:55:35;;;;;;;14.63;11.83;;;;;;;;;;5031131;28;20116;-59
2023/01/30 08:58:01;;;;;;;14.48;11.15;;;;;;;;;;5031362;28;20260;-62
2023/01/30 09:00:28;;;;;;;14.70;11.93;;;;;;;;;;5031225;28;20041;-61
2023/01/30 09:02:54;;;;;;;14.90;11.85;;;;;;;;;;5013556;28;20533;-58
2023/01/30 09:05:21;;;;;;;14.50;11.27;;;;;;;;;;5030634;28;20036;-55
2023/01/30 09:07:56;;;;;;;14.63;11.63;;;;;;;;;;5031092;28;20087;-62
2023/01/30 09:10:23;;;;;;;14.90;12.30;;;;;;;;;;5031023;28;20033;-63
2023/01/30 09:12:49;;;;;;;14.82;12.15;;;;;;;;;;5030724;28;20021;-61
2023/01/30 09:15:15;;;;;;;14.40;10.98;;;;;;;;;;5030555;28;20028;-61
2023/01/30 09:17:43;;;;;;;14.57;11.48;;;;;;;;;;5031011;28;20028;-58
2023/01/30 09:20:09;;;;;;;14.50;11.27;;;;;;;;;;5029275;28;20103;-60
2023/01/30 09:22:36;;;;;;;14.18;10.40;;;;;;;;;;5030742;28;20025;-62
2023/01/30 09:25:02;;;;;;;14.13;10.10;;;;;;;;;;5031174;28;20025;-62
2023/01/30 09:27:28;;;;;;;15.25;11.77;;;;;;;;;;5029564;28;20026;-64
2023/01/30 09:29:54;;;;;;;14.13;10.18;;;;;;;;;;5031140;28;20088;-63
2023/01/30 09:32:20;;;;;;;14.02;10.02;;;;;;;;;;5031123;28;20028;-64
2023/01/30 09:34:46;;;;;;;13.95;10.05;;;;;;;;;;5013210;28;20032;-62
2023/01/30 09:37:12;;;;;;;13.98;9.80;;;;;;;;;;5031135;28;20029;-64
2023/01/30 09:39:38;;;;;;;13.77;9.38;;;;;;;;;;5030875;28;20040;-64
2023/01/30 09:42:04;;;;;;;13.85;9.73;;;;;;;;;;5031173;28;20631;-64
2023/01/30 09:44:43;;;;;;;14.13;10.27;;;;;;;;;;5030507;28;20172;-62
2023/01/30 09:47:13;;;;;;;14.00;9.98;;;;;;;;;;5031189;28;20094;-64
2023/01/30 09:49:39;;;;;;;14.30;10.85;;;;;;;;;;5031192;28;20057;-62
2023/01/30 09:52:17;;;;;;;14.00;9.80;;;;;;;;;;5013265;28;20032;-62
2023/01/30 09:54:44;;;;;;;14.00;9.70;;;;;;;;;;5014368;28;20060;-61
2023/01/30 09:57:13;;;;;;;14.37;10.17;;;;;;;;;;5034982;28;20105;-60
2023/01/30 09:59:45;;;;;;;33.50;13.32;;;;;;;;;;5034504;28;20060;-64
2023/01/30 10:02:37;;;;;;;22.38;12.32;;;;;;;;;;5035164;28;20025;-63
2023/01/30 10:05:03;;;;;;;28.35;12.90;;;;;;;;;;5030862;28;20076;-61
2023/01/30 10:07:35;;;;;;;38.88;16.08;;;;;;;;;;5034904;28;20080;-62
2023/01/30 10:10:09;;;;;;;27.30;13.10;;;;;;;;;;5034665;28;20029;-63
2023/01/30 10:12:44;;;;;;;23.50;12.63;;;;;;;;;;5035565;28;20048;-63
2023/01/30 10:15:25;;;;;;;21.80;11.93;;;;;;;;;;5035320;28;20029;-63
2023/01/30 10:18:01;;;;;;;27.75;12.73;;;;;;;;;;5035021;28;20025;-62
2023/01/30 10:20:40;;;;;;;26.08;12.68;;;;;;;;;;5034527;28;20390;-63
2023/01/30 10:23:18;;;;;;;33.15;18.48;;;;;;;;;;5032395;28;20390;-62
2023/01/30 10:25:54;;;;;;;25.67;15.60;;;;;;;;;;5034207;28;20113;-64
2023/01/30 10:28:29;;;;;;;30.23;18.17;;;;;;;;;;5034007;28;20017;-65
2023/01/30 10:31:00;;;;;;;32.65;16.65;;;;;;;;;;5033489;28;20029;-65
2023/01/30 10:33:28;;;;;;;33.58;16.95;;;;;;;;;;5033285;28;20017;-63
2023/01/30 10:35:59;;;;;;;21.90;16.02;;;;;;;;;;5034547;28;20017;-65
2023/01/30 10:38:29;;;;;;;29.65;15.57;;;;;;;;;;5033831;28;20148;-64
2023/01/30 10:40:58;;;;;;;21.40;12.82;;;;;;;;;;5028783;28;20055;-63
2023/01/30 10:43:26;;;;;;;27.20;14.02;;;;;;;;;;5032627;28;20387;-63
2023/01/30 10:45:58;;;;;;;23.35;14.43;;;;;;;;;;5033047;28;20429;-65
2023/01/30 10:48:31;;;;;;;22.73;12.25;;;;;;;;;;5031224;28;20459;-64
2023/01/30 10:51:09;;;;;;;21.73;12.23;;;;;;;;;;5014407;28;20084;-64
2023/01/30 10:53:39;;;;;;;20.58;11.23;;;;;;;;;;5033714;28;20083;-64
2023/01/30 10:56:12;;;;;;;19.08;11.40;;;;;;;;;;5032994;28;20028;-64
2023/01/30 10:58:41;;;;;;;25.70;13.10;;;;;;;;;;5028266;28;20029;-63
2023/01/30 11:01:11;;;;;;;20.33;12.27;;;;;;;;;;5014805;28;20029;-65
2023/01/30 11:03:40;;;;;;;24.85;13.98;;;;;;;;;;5030017;28;20029;-65
2023/01/30 11:06:08;;;;;;;26.45;14.35;;;;;;;;;;5032625;28;20037;-65
2023/01/30 11:08:35;;;;;;;28.92;13.57;;;;;;;;;;5032423;28;20035;-65
2023/01/30 11:11:01;;;;;;;22.98;11.88;;;;;;;;;;5011633;28;20037;-66
2023/01/30 11:13:31;;;;;;;24.17;14.27;;;;;;;;;;5024256;28;20025;-61
2023/01/30 11:15:59;;;;;;;20.98;10.93;;;;;;;;;;5030644;28;20673;-62
2023/01/30 11:18:25;;;;;;;23.02;10.70;;;;;;;;;;5015454;28;20029;-62
2023/01/30 11:20:57;;;;;;;22.23;12.27;;;;;;;;;;5031757;28;20078;-63
2023/01/30 11:23:25;;;;;;;25.52;11.57;;;;;;;;;;5032744;28;20379;-63
2023/01/30 11:25:54;;;;;;;24.43;11.67;;;;;;;;;;5032383;28;20032;-63
2023/01/30 11:28:20;;;;;;;;;;;;;;;;;;5033639;28;20280;-63
2023/01/30 11:31:05;;;;;;;24.17;10.93;;;;;;;;;;5013717;28;20395;-63
2023/01/30 11:33:35;;;;;;;30.60;11.15;;;;;;;;;;5013057;28;20022;-62
2023/01/30 11:36:06;;;;;;;24.67;11.77;;;;;;;;;;5032192;28;20151;-63
2023/01/30 11:38:33;;;;;;;25.52;11.75;;;;;;;;;;5014587;28;20071;-67
2023/01/30 11:41:05;;;;;;;21.67;11.00;;;;;;;;;;5032116;28;20025;-61
2023/01/30 11:43:32;;;;;;;20.00;10.70;;;;;;;;;;5030601;28;20025;-62
2023/01/30 11:45:58;;;;;;;16.88;10.13;;;;;;;;;;5031128;28;20049;-62
2023/01/30 11:48:28;;;;;;;22.23;10.50;;;;;;;;;;5030943;28;20036;-59
2023/01/30 11:51:03;;;;;;;21.15;10.30;;;;;;;;;;5013413;28;20045;-62
2023/01/30 11:53:29;;;;;;;22.20;10.65;;;;;;;;;;5031408;28;20026;-61
2023/01/30 11:55:57;;;;;;;25.13;11.60;;;;;;;;;;5030234;28;20040;-58
2023/01/30 11:58:23;;;;;;;30.10;11.95;;;;;;;;;;5031514;28;20032;-63
2023/01/30 12:00:49;;;;;;;28.80;11.48;;;;;;;;;;5031437;28;20410;-60
2023/01/30 12:03:23;;;;;;;18.77;10.13;;;;;;;;;;5030600;28;20029;-63
2023/01/30 12:05:49;;;;;;;28.23;11.20;;;;;;;;;;5031507;28;20454;-62
2023/01/30 12:08:22;;;;;;;22.13;11.38;;;;;;;;;;5031764;28;20374;-63
2023/01/30 12:11:00;;;;;;;22.08;9.70;;;;;;;;;;5032057;28;20025;-63
2023/01/30 12:13:44;;;;;;;22.58;9.43;;;;;;;;;;5031608;28;20083;-63
2023/01/30 12:16:10;;;;;;;24.52;10.68;;;;;;;;;;5031771;28;20115;-63
2023/01/30 12:18:39;;;;;;;23.50;10.60;;;;;;;;;;5030940;28;20022;-63
2023/01/30 12:21:22;;;;;;;25.27;11.48;;;;;;;;;;5031730;28;20091;-62
2023/01/30 12:23:51;;;;;;;18.70;9.45;;;;;;;;;;5031263;28;20492;-62
2023/01/30 12:26:21;;;;;;;20.55;11.05;;;;;;;;;;5031632;28;20095;-63
2023/01/30 12:28:56;;;;;;;22.92;10.20;;;;;;;;;;5031507;28;20108;-63
2023/01/30 12:31:28;;;;;;;21.85;10.02;;;;;;;;;;5031688;28;20029;-63
2023/01/30 12:33:55;;;;;;;23.90;9.77;;;;;;;;;;5031006;28;20025;-62
2023/01/30 12:36:39;;;;;;;18.98;9.25;;;;;;;;;;5031457;28;20071;-61
2023/01/30 12:39:13;;;;;;;22.13;10.52;;;;;;;;;;5031121;28;20024;-61
2023/01/30 12:41:48;;;;;;;25.67;11.32;;;;;;;;;;5031140;28;20029;-60
2023/01/30 12:44:28;;;;;;;22.42;10.52;;;;;;;;;;5031202;28;20100;-60
2023/01/30 12:47:11;;;;;;;28.13;11.10;;;;;;;;;;5031156;28;20693;-61
2023/01/30 12:50:03;;;;;;;28.10;11.02;;;;;;;;;;5031210;28;20061;-63
2023/01/30 12:52:38;;;;;;;20.10;10.30;;;;;;;;;;5031251;28;20021;-62
2023/01/30 12:55:23;;;;;;;22.83;11.30;;;;;;;;;;5030586;28;20036;-63
2023/01/30 12:58:08;;;;;;;27.00;11.32;;;;;;;;;;5029913;28;20064;-62
2023/01/30 13:00:34;;;;;;;23.77;10.90;;;;;;;;;;5040047;23;20046;-62
2023/01/30 13:03:06;;;;;;;19.63;10.32;;;;;;;;;;5012861;28;20470;-64
2023/01/30 13:05:55;;;;;;;24.05;11.15;;;;;;;;;;5013081;28;20022;-63
2023/01/30 13:08:27;;;;;;;21.38;9.77;;;;;;;;;;5012960;28;20037;-64
2023/01/30 13:11:11;;;;;;;23.13;10.70;;;;;;;;;;4994079;28;20084;-62
2023/01/30 13:13:45;;;;;;;18.33;10.20;;;;;;;;;;5011440;28;20088;-61
2023/01/30 13:16:20;;;;;;;24.30;10.38;;;;;;;;;;5011658;28;20041;-63
2023/01/30 13:18:49;;;;;;;20.35;11.52;;;;;;;;;;5017482;28;20029;-62
2023/01/30 13:21:17;;;;;;;21.33;10.93;;;;;;;;;;5010262;28;20394;-63
2023/01/30 13:23:48;;;;;;;23.98;11.00;;;;;;;;;;5017323;28;20049;-61
2023/01/30 13:26:19;;;;;;;26.05;11.18;;;;;;;;;;5018881;28;20033;-63
2023/01/30 13:28:49;;;;;;;26.05;12.68;;;;;;;;;;5013346;28;20033;-63
2023/01/30 13:31:21;;;;;;;27.23;11.63;;;;;;;;;;5015233;28;20490;-63
2023/01/30 13:33:49;;;;;;;21.10;11.07;;;;;;;;;;5027439;28;20551;-64
2023/01/30 13:36:26;;;;;;;25.42;11.23;;;;;;;;;;5005763;28;20108;-65
2023/01/30 13:39:00;;;;;;;19.35;10.82;;;;;;;;;;5028552;28;20049;-68
2023/01/30 13:41:29;;;;;;;24.58;12.27;;;;;;;;;;5020113;28;20363;-65
2023/01/30 13:43:56;;;;;;;27.98;18.25;;;;;;;;;;5015770;28;20056;-62
2023/01/30 13:46:24;;;;;;;31.45;28.25;;;;;;;;;;5025428;28;20017;-64
2023/01/30 13:49:13;;;;;;;32.85;29.25;;;;;;;;;;5023709;28;20504;-61
2023/01/30 13:51:51;;;;;;;31.67;26.92;;;;;;;;;;5014583;28;20038;-63
2023/01/30 13:54:24;;;;;;;35.58;20.35;;;;;;;;;;5026759;28;20095;-58
2023/01/30 13:56:54;;;;;;;28.58;18.92;;;;;;;;;;5023392;28;20030;-63
2023/01/30 13:59:26;;;;;;;30.60;23.17;;;;;;;;;;5015307;28;20026;-63
2023/01/30 14:02:09;;;;;;;42.72;36.20;;;;;;;;;;5017352;28;20061;-63
2023/01/30 14:04:41;;;;;;;42.88;39.05;;;;;;;;;;5026141;28;20386;-62
2023/01/30 14:07:20;;;;;;;40.55;36.28;;;;;;;;;;4997649;28;20079;-63
2023/01/30 14:09:49;;;;;;;29.27;26.13;;;;;;;;;;5015002;28;20037;-62
2023/01/30 14:12:18;;;;;;;29.23;25.27;;;;;;;;;;5014986;28;20053;-61
2023/01/30 14:14:57;;;;;;;21.35;19.05;;;;;;;;;;5023761;28;20097;-62
2023/01/30 14:17:23;;;;;;;;;;;;;;;;;;5035409;28;20397;-62
2023/01/30 14:20:00;;;;;;;26.48;18.88;;;;;;;;;;5033305;28;19905;-62
2023/01/30 14:22:26;;;;;;;28.02;18.48;;;;;;;;;;5034557;28;20631;-64
2023/01/30 14:25:11;;;;;;;22.30;17.90;;;;;;;;;;5004359;28;20365;-65
2023/01/30 14:27:37;;;;;;;19.88;16.40;;;;;;;;;;5019912;28;20022;-61
2023/01/30 14:30:23;;;;;;;21.40;16.33;;;;;;;;;;5032252;28;20021;-61
2023/01/30 14:32:53;;;;;;;19.83;16.73;;;;;;;;;;5007681;28;20025;-63
2023/01/30 14:35:20;;;;;;;23.52;16.80;;;;;;;;;;5034627;28;20032;-61
2023/01/30 14:37:48;;;;;;;20.45;17.25;;;;;;;;;;5034298;28;20037;-61